Time;durP1;ratioP1;P1;durP2;ratioP2;P2;SDS_P1;SDS_P2;PMS_P1;PMS_P2;Temp;Humidity;BMP_temperature;BMP_pressure;BME280_temperature;BME280_humidity;BME280_pressure;Samples;Min_cycle;Max_cycle;Signal;HPM_P1;HPM_P2
2021/07/14 05:11:37;;;;;;;;;14.33;14.00;;;;;17.32;76.89;101185.94;5826414;24;46907;-89
2021/07/14 05:14:03;;;;;;;;;17.67;16.00;;;;;17.33;77.08;101186.81;4806390;29;46876;-84
2021/07/14 05:16:29;;;;;;;;;14.00;13.00;;;;;17.36;76.65;101186.84;4808199;29;45435;-84
2021/07/14 05:18:54;;;;;;;;;12.33;12.33;;;;;17.40;76.94;101187.69;4791929;29;45337;-84
2021/07/14 05:21:20;;;;;;;;;15.00;14.67;;;;;17.41;77.17;101185.03;4808982;29;45844;-84
2021/07/14 05:23:45;;;;;;;;;15.33;14.67;;;;;17.40;76.60;101182.38;4808780;29;45428;-82
2021/07/14 05:26:11;;;;;;;;;16.00;14.33;;;;;17.40;76.85;101187.69;4792105;29;48122;-84
2021/07/14 05:28:37;;;;;;;;;16.67;15.00;;;;;17.44;77.21;101198.31;4808640;29;45308;-83
2021/07/14 05:31:02;;;;;;;;;15.00;14.33;;;;;17.46;76.81;101196.53;4809043;29;45400;-81
2021/07/14 05:33:28;;;;;;;;;16.00;16.00;;;;;17.47;76.84;101200.94;4808520;29;45262;-85
2021/07/14 05:35:54;;;;;;;;;14.33;13.33;;;;;17.45;76.78;101189.44;4792017;29;47181;-84
2021/07/14 05:38:21;;;;;;;;;15.67;13.00;;;;;17.45;76.75;101181.47;4808654;29;45377;-84
2021/07/14 05:40:51;;;;;;;;;15.33;12.33;;;;;17.50;76.83;101197.41;4808630;29;45555;-84
2021/07/14 05:43:16;;;;;;;;;16.00;12.33;;;;;17.51;76.44;101190.31;4808688;29;45337;-85
2021/07/14 05:45:42;;;;;;;;;13.67;12.67;;;;;17.47;75.75;101192.13;4808312;29;46041;-84
2021/07/14 05:48:07;;;;;;;;;11.67;11.67;;;;;17.50;76.16;101194.75;4808217;29;45529;-84
2021/07/14 05:50:33;;;;;;;;;12.33;12.00;;;;;17.51;76.09;101192.97;4808917;29;45225;-84
2021/07/14 05:52:58;;;;;;;;;13.33;11.00;;;;;17.51;76.16;101195.63;4792234;29;45227;-83
2021/07/14 05:55:24;;;;;;;;;13.00;13.00;;;;;17.51;75.68;101192.97;4808414;29;45427;-81
2021/07/14 05:57:51;;;;;;;;;12.33;10.67;;;;;17.50;76.00;101185.88;4808564;29;45298;-81
2021/07/14 06:00:17;;;;;;;;;11.67;11.00;;;;;17.49;76.25;101200.97;4807589;29;45407;-82
2021/07/14 06:02:43;;;;;;;;;13.67;13.67;;;;;17.49;76.52;101203.63;4808279;29;45377;-82
2021/07/14 06:05:09;;;;;;;;;16.33;13.00;;;;;17.47;76.05;101195.63;4808012;29;45332;-81
2021/07/14 06:07:35;;;;;;;;;15.00;13.67;;;;;17.47;76.27;101205.41;4808449;29;45446;-81
2021/07/14 06:10:01;;;;;;;;;12.67;10.67;;;;;17.52;75.87;101202.69;4808275;29;45262;-81
2021/07/14 06:12:26;;;;;;;;;16.00;13.67;;;;;17.52;76.54;101208.91;4808251;29;45337;-81
2021/07/14 06:14:51;;;;;;;;;10.00;10.00;;;;;17.51;75.93;101208.91;4807910;29;46844;-82
2021/07/14 06:17:17;;;;;;;;;14.00;12.33;;;;;17.51;76.40;101215.13;4807764;29;45332;-82
2021/07/14 06:25:31;;;;;;;;;15.33;11.67;;;;;17.47;75.41;101208.06;4943811;24;73962;-91
2021/07/14 06:30:32;;;;;;;;;12.00;10.67;;;;;17.35;75.46;101188.59;5073658;24;46334;-90
2021/07/14 06:33:04;;;;;;;;;9.00;9.00;;;;;17.45;75.16;101209.84;4844159;29;44895;-89
2021/07/14 06:35:47;;;;;;;;;10.67;9.33;;;;;17.51;75.63;101220.44;4819944;29;47197;-88
2021/07/14 06:38:12;;;;;;;;;11.33;10.00;;;;;17.38;75.56;101192.13;4815529;29;45491;-90
2021/07/14 06:40:49;;;;;;;;;10.00;10.00;;;;;17.42;75.66;101207.19;4831058;29;45395;-90
2021/07/14 06:43:41;;;;;;;;;11.00;9.00;;;;;17.35;75.88;101196.56;4830653;29;45354;-89
2021/07/14 06:46:10;;;;;;;;;12.67;12.00;;;;;17.53;75.97;101223.09;4830362;29;45434;-90
2021/07/14 06:52:38;;;;;;;;;8.00;7.67;;;;;17.46;75.48;101225.78;4791872;29;45369;-89
2021/07/14 06:55:05;;;;;;;;;10.67;9.00;;;;;17.45;75.65;101212.50;4722574;30;45737;-90
2021/07/14 06:58:16;;;;;;;;;13.00;11.00;;;;;17.56;76.09;101231.03;4737938;30;48577;-91
2021/07/14 07:03:18;;;;;;;;;15.00;10.00;;;;;17.59;75.93;101233.69;3487270;24;46648;-90
2021/07/14 07:05:43;;;;;;;;;11.33;10.33;;;;;17.52;76.03;101214.22;4792711;29;45585;-90
2021/07/14 07:08:18;;;;;;;;;9.33;9.33;;;;;17.60;74.92;101222.16;4777290;29;47120;-90
2021/07/14 07:15:09;;;;;;;;;;;;;;;;;;;;;
2021/07/14 07:25:45;;;;;;;;;10.00;10.00;;;;;17.59;76.05;101210.66;4830451;29;45338;-90
2021/07/14 07:32:14;;;;;;;;;9.00;9.00;;;;;17.75;75.08;101234.50;4790956;29;46419;-91
2021/07/14 07:34:39;;;;;;;;;9.67;9.00;;;;;17.61;75.43;101210.66;4755263;29;45462;-92
2021/07/14 07:37:11;;;;;;;;;9.67;9.00;;;;;17.71;75.16;101236.31;4755214;29;45486;-89
2021/07/14 07:40:15;;;;;;;;;;;;;;;;;;;;;
2021/07/14 07:48:28;;;;;;;;;10.00;10.00;;;;;17.77;74.49;101246.03;4920118;24;67868;-91
2021/07/14 07:56:53;;;;;;;;;9.67;9.00;;;;;17.61;74.62;101213.31;4976452;24;45797;-90
2021/07/14 08:00:05;;;;;;;;;;;;;;;;;;;;;
2021/07/14 08:02:31;;;;;;;;;12.33;8.33;;;;;17.76;75.02;101227.41;4753936;29;63381;-84
2021/07/14 08:04:56;;;;;;;;;10.67;10.00;;;;;17.89;75.40;101246.88;4753605;29;46239;-80
2021/07/14 08:07:22;;;;;;;;;10.67;8.00;;;;;17.93;75.15;101252.16;4801885;29;45374;-81
2021/07/14 08:09:47;;;;;;;;;9.00;9.00;;;;;17.94;75.68;101251.25;4809958;29;45403;-80
2021/07/14 08:12:12;;;;;;;;;8.67;8.00;;;;;18.00;75.48;101257.47;4809834;29;45320;-81
2021/07/14 08:14:38;;;;;;;;;7.67;7.67;;;;;18.04;75.54;101253.88;4809594;29;45441;-80
2021/07/14 08:17:04;;;;;;;;;10.00;10.00;;;;;18.09;75.60;101257.38;4809466;29;45399;-80
2021/07/14 08:19:30;;;;;;;;;7.00;7.00;;;;;18.14;74.43;101252.06;4809925;29;45281;-80
2021/07/14 08:21:55;;;;;;;;;7.67;7.67;;;;;18.17;74.73;101258.25;4810004;29;45368;-79
2021/07/14 08:24:21;;;;;;;;;5.67;5.67;;;;;18.15;74.23;101249.38;4809281;29;46184;-80
2021/07/14 08:26:46;;;;;;;;;14.33;9.67;;;;;18.19;73.87;101260.91;4809769;29;45194;-80
2021/07/14 08:29:37;;;;;;;;;6.67;6.67;;;;;18.20;73.59;101267.13;4811662;29;45691;-89
2021/07/14 08:32:07;;;;;;;;;10.33;6.33;;;;;18.22;73.52;101268.88;4795450;29;45515;-88
2021/07/14 08:34:55;;;;;;;;;5.67;5.67;;;;;18.23;73.79;101275.09;4810855;29;45372;-88
2021/07/14 08:37:51;;;;;;;;;10.00;6.67;;;;;18.08;74.28;101244.09;4794728;29;45437;-89
2021/07/14 08:40:22;;;;;;;;;7.33;6.00;;;;;18.23;73.37;101270.63;4812510;29;45433;-89
2021/07/14 08:42:56;;;;;;;;;7.00;7.00;;;;;18.12;73.45;101261.81;4809938;29;45362;-89
2021/07/14 08:45:22;;;;;;;;;9.00;7.00;;;;;18.22;74.00;101278.63;4807969;29;46546;-89
2021/07/14 08:47:59;;;;;;;;;6.67;6.67;;;;;18.09;73.62;101257.38;4807704;29;45267;-89
2021/07/14 08:50:32;;;;;;;;;11.00;8.67;;;;;18.08;73.42;101249.44;4807413;29;45565;-89
2021/07/14 08:53:08;;;;;;;;;8.67;7.00;;;;;18.22;73.88;101289.28;4806421;29;45255;-89
2021/07/14 08:55:36;;;;;;;;;8.67;7.67;;;;;18.21;73.90;101285.72;4807255;29;45575;-89
2021/07/14 08:58:02;;;;;;;;;10.33;9.33;;;;;18.10;72.87;101263.59;4807871;29;45529;-88
2021/07/14 09:00:32;;;;;;;;;9.67;9.33;;;;;18.14;73.86;101279.56;4794433;29;45376;-89
2021/07/14 09:03:10;;;;;;;;;11.33;9.33;;;;;18.21;74.03;101290.19;4800607;29;45584;-88
2021/07/14 09:05:39;;;;;;;;;10.67;10.67;;;;;18.05;74.29;101264.50;4816470;29;47233;-88
2021/07/14 09:08:21;;;;;;;;;9.00;8.33;;;;;18.07;74.07;101269.81;4818217;29;45003;-88
2021/07/14 09:10:46;;;;;;;;;7.67;6.00;;;;;18.08;73.13;101276.91;4818352;29;44839;-89
2021/07/14 09:13:13;;;;;;;;;6.00;6.00;;;;;18.12;73.02;101280.44;4795772;29;45458;-89
2021/07/14 09:15:51;;;;;;;;;8.33;6.00;;;;;18.09;73.32;101273.34;4809257;29;48196;-89
2021/07/14 09:18:20;;;;;;;;;8.00;7.00;;;;;18.15;73.79;101288.38;4794536;29;45277;-90
2021/07/14 09:20:49;;;;;;;;;10.00;5.67;;;;;18.04;73.08;101270.72;4793585;29;45448;-88
2021/07/14 09:23:25;;;;;;;;;6.67;5.67;;;;;18.09;72.67;101289.31;4810232;29;45379;-88
2021/07/14 09:26:12;;;;;;;;;5.67;5.00;;;;;17.97;72.88;101268.09;4793084;29;46984;-89
2021/07/14 09:28:43;;;;;;;;;6.00;6.00;;;;;18.06;72.82;101284.03;4808332;29;45376;-89
2021/07/14 09:31:12;;;;;;;;;6.67;5.67;;;;;17.99;72.34;101271.63;4809149;29;45483;-89
2021/07/14 09:33:42;;;;;;;;;6.67;6.00;;;;;17.99;73.20;101271.63;4808349;29;45594;-89
2021/07/14 09:36:08;;;;;;;;;6.33;6.33;;;;;18.08;73.31;101281.34;4808063;29;47213;-82
2021/07/14 09:38:45;;;;;;;;;6.00;6.00;;;;;18.16;74.18;101287.50;4808914;29;45315;-89
2021/07/14 09:41:35;;;;;;;;;5.00;5.00;;;;;18.19;74.47;101292.84;4795877;29;45486;-91
2021/07/14 09:44:22;;;;;;;;;4.67;4.67;;;;;18.26;73.07;101299.91;4815575;29;45421;-90
2021/07/14 09:47:12;;;;;;;;;6.67;6.00;;;;;18.31;72.61;101294.56;4796652;29;47059;-90
2021/07/14 09:49:52;;;;;;;;;6.33;4.67;;;;;18.26;73.00;101277.72;4810925;29;45410;-90
2021/07/14 09:52:29;;;;;;;;;5.33;5.00;;;;;18.26;73.27;101288.38;4795460;29;45419;-90
2021/07/14 09:55:08;;;;;;;;;5.33;5.33;;;;;18.27;71.79;101288.34;4812406;29;45595;-89
2021/07/14 09:57:35;;;;;;;;;7.00;6.00;;;;;18.32;72.38;101293.66;4795243;29;47362;-89
2021/07/14 10:01:05;;;;;;;;;6.33;5.67;;;;;18.39;72.87;101300.72;4809109;29;45554;-90
2021/07/14 10:03:37;;;;;;;;;7.00;6.00;;;;;18.40;72.68;101306.94;4700284;30;45309;-89
2021/07/14 10:10:14;;;;;;;;;;;;;;;;;;;;;
2021/07/14 10:12:55;;;;;;;;;7.00;6.67;;;;;18.42;72.50;101296.28;4646987;30;72816;-90
2021/07/14 10:15:22;;;;;;;;;6.00;5.00;;;;;18.35;72.12;101276.78;4634077;30;45292;-91
2021/07/14 10:17:56;;;;;;;;;6.33;6.00;;;;;18.48;72.93;101306.88;4634088;30;45660;-90
2021/07/14 10:21:02;;;;;;;;;;;;;;;;;;;;;
2021/07/14 10:23:30;;;;;;;;;6.00;6.00;;;;;18.55;73.68;101307.72;4654227;30;71376;-88
2021/07/14 10:25:58;;;;;;;;;7.67;6.67;;;;;18.48;72.98;101291.81;4659184;30;45331;-89
2021/07/14 10:28:32;;;;;;;;;6.00;5.00;;;;;18.52;71.85;101308.63;4673413;30;45484;-88
2021/07/14 10:30:58;;;;;;;;;13.33;6.00;;;;;18.57;72.00;101304.13;4652565;30;46802;-82
2021/07/14 10:33:24;;;;;;;;;6.00;6.00;;;;;18.62;72.64;101313.00;4664155;30;45468;-81
2021/07/14 10:35:51;;;;;;;;;8.67;8.33;;;;;18.63;72.98;101317.41;4663811;30;45444;-81
2021/07/14 10:38:26;;;;;;;;;8.00;6.67;;;;;18.67;71.87;101309.41;4649685;30;45534;-81
2021/07/14 10:40:54;;;;;;;;;8.00;7.33;;;;;18.70;71.88;101320.03;4698097;30;46849;-81
2021/07/14 10:43:25;;;;;;;;;11.00;5.67;;;;;18.68;72.42;101313.81;4723268;29;45364;-80
2021/07/14 10:45:51;;;;;;;;;10.00;6.67;;;;;18.74;72.48;101321.81;4751580;29;45372;-81
2021/07/14 10:48:24;;;;;;;;;7.33;7.33;;;;;18.78;72.17;101331.53;4756295;29;45302;-81
2021/07/14 10:50:51;;;;;;;;;5.67;5.67;;;;;18.79;72.12;101319.09;4807713;29;46204;-81
2021/07/14 10:53:18;;;;;;;;;9.00;6.67;;;;;18.80;72.45;101329.75;4807386;29;45340;-81
2021/07/14 10:55:45;;;;;;;;;8.00;6.33;;;;;18.83;71.57;101331.47;4807684;29;45205;-81
2021/07/14 10:58:16;;;;;;;;;7.00;6.00;;;;;18.86;70.65;101332.38;4807787;29;45333;-81
2021/07/14 11:00:43;;;;;;;;;9.00;7.67;;;;;18.89;71.95;101331.44;4807435;29;45286;-82
2021/07/14 11:03:36;;;;;;;;;12.00;6.67;;;;;18.94;71.94;101323.41;4807198;29;45246;-81
2021/07/14 11:06:03;;;;;;;;;6.67;6.67;;;;;18.92;71.66;101306.56;4791423;29;45261;-81
2021/07/14 11:08:47;;;;;;;;;8.00;7.00;;;;;19.00;72.32;101319.81;4807702;29;45258;-81
2021/07/14 11:11:19;;;;;;;;;9.00;8.00;;;;;19.05;72.44;101323.31;4807215;29;46308;-81
2021/07/14 11:13:48;;;;;;;;;8.00;8.00;;;;;19.09;71.94;101325.97;4807480;29;45314;-81
2021/07/14 11:16:39;;;;;;;;;10.33;8.00;;;;;19.15;72.05;101330.38;4809503;29;45271;-80
2021/07/14 11:19:17;;;;;;;;;8.33;8.33;;;;;19.21;72.08;101332.09;4809456;29;45273;-81
2021/07/14 11:22:06;;;;;;;;;8.33;8.33;;;;;19.30;72.88;101329.34;4810359;29;46514;-86
2021/07/14 11:25:50;;;;;;;;;10.00;8.00;;;;;19.44;73.25;101325.66;4827562;24;45674;-92
2021/07/14 11:28:09;;;;;;;;;7.67;7.67;;;;;19.53;72.96;101309.56;4848088;24;45587;-91
2021/07/14 11:34:28;;;;;;;;;9.33;8.33;;;;;19.90;72.43;101307.38;4738081;29;45860;-92
2021/07/14 11:37:19;;;;;;;;;10.67;7.67;;;;;20.21;71.49;101319.47;4735238;30;45787;-92
2021/07/14 11:39:48;;;;;;;;;10.33;7.67;;;;;20.32;71.28;101303.28;4722763;30;45412;-91
2021/07/14 11:42:46;;;;;;;;;10.00;8.00;;;;;20.42;69.29;101293.34;4722865;30;45436;-90
2021/07/14 11:45:11;;;;;;;;;10.00;8.67;;;;;20.67;70.01;101317.91;4735902;30;45476;-81
2021/07/14 11:47:37;;;;;;;;;11.00;10.00;;;;;20.78;69.13;101316.84;4736205;30;45312;-81
2021/07/14 11:50:06;;;;;;;;;10.00;10.00;;;;;20.83;69.81;101320.34;4736453;30;45422;-81
2021/07/14 11:52:46;;;;;;;;;9.00;8.00;;;;;20.80;68.12;101317.69;4736241;30;45390;-81
2021/07/14 11:55:23;;;;;;;;;13.33;10.00;;;;;20.79;68.13;101319.47;4735820;30;45333;-81
2021/07/14 11:57:52;;;;;;;;;11.33;11.33;;;;;20.75;68.20;101323.09;4735812;30;45362;-81
2021/07/14 12:00:30;;;;;;;;;10.33;7.67;;;;;20.72;68.34;101328.53;4728809;30;45449;-81
2021/07/14 12:03:00;;;;;;;;;15.67;10.00;;;;;20.67;68.26;101331.25;4736072;30;45469;-80
2021/07/14 12:05:33;;;;;;;;;11.67;10.00;;;;;20.64;67.02;101325.09;4735670;30;45485;-81
2021/07/14 12:08:09;;;;;;;;;7.67;7.00;;;;;20.63;67.63;101326.88;4735712;30;45344;-81
2021/07/14 12:10:35;;;;;;;;;9.33;9.00;;;;;20.68;67.48;101326.81;4806414;29;45403;-81
2021/07/14 12:13:01;;;;;;;;;9.00;9.00;;;;;20.69;67.45;101328.56;4828157;29;45430;-81
2021/07/14 12:15:28;;;;;;;;;8.67;8.67;;;;;20.67;67.88;101320.56;4827797;29;46882;-81
2021/07/14 12:17:53;;;;;;;;;9.67;9.67;;;;;20.69;68.17;101329.44;4828063;29;45468;-80
2021/07/14 12:20:19;;;;;;;;;10.67;10.33;;;;;20.67;67.48;101331.25;4827929;29;45302;-81
2021/07/14 12:22:44;;;;;;;;;10.67;10.67;;;;;20.64;67.99;101339.34;4828237;29;45342;-81
2021/07/14 12:25:15;;;;;;;;;12.00;10.33;;;;;20.62;67.19;101333.13;4827526;29;45643;-81
2021/07/14 12:27:43;;;;;;;;;9.00;9.00;;;;;20.58;67.06;101331.41;4827763;29;45287;-81
2021/07/14 12:30:10;;;;;;;;;11.67;11.67;;;;;20.58;66.22;101337.63;4827666;29;45355;-80
2021/07/14 12:32:37;;;;;;;;;12.67;11.67;;;;;20.58;67.16;101342.09;4828066;29;45347;-81
2021/07/14 12:35:06;;;;;;;;;10.67;10.00;;;;;20.57;66.80;101340.31;4827815;29;45264;-80
2021/07/14 12:37:34;;;;;;;;;9.67;9.00;;;;;20.57;65.85;101334.97;4827207;29;45328;-81
2021/07/14 12:40:00;;;;;;;;;9.00;8.00;;;;;20.52;65.70;101329.69;4827552;29;45195;-80
2021/07/14 12:42:25;;;;;;;;;8.33;8.33;;;;;20.50;66.21;101334.19;4811545;29;45391;-80
2021/07/14 12:44:51;;;;;;;;;11.67;11.67;;;;;20.48;66.39;101342.22;4827507;29;45439;-81
2021/07/14 12:47:20;;;;;;;;;10.00;10.00;;;;;20.46;64.20;101340.47;4827644;29;45475;-80
2021/07/14 12:49:48;;;;;;;;;9.33;9.00;;;;;20.43;66.72;101338.72;4827589;29;45289;-80
2021/07/14 12:52:16;;;;;;;;;12.00;11.00;;;;;20.43;65.96;101341.38;4827560;29;45373;-81
2021/07/14 12:54:43;;;;;;;;;10.67;10.00;;;;;20.43;65.95;101346.72;4827627;29;45293;-80
2021/07/14 12:57:21;;;;;;;;;9.00;9.00;;;;;20.47;66.33;101335.09;4827350;29;45486;-80
2021/07/14 12:59:58;;;;;;;;;11.00;10.00;;;;;20.57;66.04;101324.28;4827327;29;45447;-81
2021/07/14 13:02:27;;;;;;;;;12.33;11.67;;;;;20.65;65.57;101325.06;4827433;29;45270;-80
2021/07/14 13:04:58;;;;;;;;;12.00;12.00;;;;;20.77;66.88;101331.97;4827020;29;45323;-81
2021/07/14 13:07:29;;;;;;;;;8.67;8.00;;;;;20.89;66.02;101324.69;4827203;29;45347;-81
2021/07/14 13:09:57;;;;;;;;;9.67;9.33;;;;;20.99;65.65;101329.00;4827399;29;45223;-80
2021/07/14 13:12:25;;;;;;;;;11.00;9.00;;;;;21.05;65.08;101333.34;4827276;29;45449;-81
2021/07/14 13:14:52;;;;;;;;;8.33;8.33;;;;;21.11;64.67;101325.22;4827091;29;46047;-80
2021/07/14 13:17:33;;;;;;;;;11.33;10.00;;;;;21.13;65.39;101325.22;4826868;29;45191;-81
2021/07/14 13:20:00;;;;;;;;;10.00;9.00;;;;;21.15;65.73;101331.44;4827203;29;45422;-81
2021/07/14 13:22:25;;;;;;;;;11.33;9.67;;;;;21.19;65.26;101343.81;4827286;29;45277;-80
2021/07/14 13:25:01;;;;;;;;;10.33;9.67;;;;;21.24;66.04;101335.69;4826785;29;46830;-79
2021/07/14 13:27:27;;;;;;;;;11.00;9.00;;;;;21.28;64.94;101334.75;4826964;29;45241;-79
2021/07/14 13:29:52;;;;;;;;;10.67;8.67;;;;;21.32;63.84;101339.13;4826765;29;45495;-80
2021/07/14 13:32:20;;;;;;;;;10.33;8.00;;;;;21.36;64.85;101329.28;4826921;29;45204;-81
2021/07/14 13:34:47;;;;;;;;;11.00;9.33;;;;;21.43;65.39;101325.56;4827001;29;46224;-81
2021/07/14 13:37:26;;;;;;;;;11.00;10.00;;;;;21.50;64.41;101326.31;4826529;29;45336;-81
2021/07/14 13:39:51;;;;;;;;;10.33;8.67;;;;;21.57;65.09;101330.66;4826398;29;45305;-80
2021/07/14 13:42:17;;;;;;;;;11.00;10.00;;;;;21.62;64.55;101336.78;4810401;29;45280;-81
2021/07/14 13:44:43;;;;;;;;;11.67;10.00;;;;;21.68;65.07;101333.09;4826530;29;46091;-81
2021/07/14 13:47:19;;;;;;;;;12.33;11.33;;;;;21.78;64.46;101339.16;4826728;29;45380;-80
2021/07/14 13:49:46;;;;;;;;;9.33;8.00;;;;;21.83;63.69;101341.72;4827053;29;45415;-81
2021/07/14 13:52:20;;;;;;;;;8.00;8.00;;;;;21.85;63.00;101338.16;4826759;29;45372;-81
2021/07/14 13:54:46;;;;;;;;;13.00;8.00;;;;;21.84;63.08;101360.50;4826436;29;46141;-81
2021/07/14 13:57:11;;;;;;;;;12.00;8.00;;;;;21.81;62.37;101355.16;4826588;29;45411;-81
2021/07/14 13:59:42;;;;;;;;;11.67;11.33;;;;;21.81;61.69;101351.59;4826679;29;45412;-81
2021/07/14 14:02:25;;;;;;;;;10.00;10.00;;;;;21.81;63.90;101359.63;4826948;29;45341;-81
2021/07/14 14:04:59;;;;;;;;;11.00;9.33;;;;;21.80;63.22;101341.81;4826357;29;47237;-80
2021/07/14 14:07:27;;;;;;;;;12.67;10.67;;;;;21.77;63.47;101353.44;4826218;29;45331;-81
2021/07/14 14:10:00;;;;;;;;;14.00;11.00;;;;;21.77;62.81;101355.22;4826193;29;45277;-81
2021/07/14 14:12:40;;;;;;;;;14.00;10.33;;;;;21.77;63.36;101358.81;4826565;29;45345;-81
2021/07/14 14:15:17;;;;;;;;;14.33;11.33;;;;;21.76;63.38;101354.38;4826195;29;46010;-81
2021/07/14 14:17:44;;;;;;;;;16.00;13.00;;;;;21.74;63.33;101364.22;4826309;29;45438;-81
2021/07/14 14:20:12;;;;;;;;;13.00;13.00;;;;;21.72;63.54;101360.69;4825794;29;45453;-81
2021/07/14 14:22:38;;;;;;;;;14.00;12.00;;;;;21.72;63.63;101379.44;4824997;29;45640;-81
2021/07/14 14:25:16;;;;;;;;;13.00;11.33;;;;;21.63;61.79;101361.75;4825949;29;45421;-81
2021/07/14 14:28:01;;;;;;;;;14.00;11.67;;;;;21.65;62.04;101373.31;4826013;29;45413;-81
2021/07/14 14:30:29;;;;;;;;;17.00;13.67;;;;;21.57;63.57;101353.84;4826225;29;45364;-81
2021/07/14 14:32:57;;;;;;;;;13.33;11.67;;;;;21.66;62.54;101363.50;4826376;29;45256;-80
2021/07/14 14:36:03;;;;;;;;;11.33;11.33;;;;;21.66;62.16;101360.81;4827145;29;46165;-92
2021/07/14 14:41:05;;;;;;;;;12.00;12.00;;;;;21.67;62.75;101381.28;4834876;24;45419;-92
2021/07/14 14:43:31;;;;;;;;;13.00;13.00;;;;;21.55;61.98;101351.22;4757387;29;45473;-92
2021/07/14 14:49:16;;;;;;;;;13.67;12.33;;;;;21.58;63.25;101355.59;4771854;29;45383;-93
2021/07/14 14:56:04;;;;;;;;;12.00;11.00;;;;;21.48;60.95;101349.53;4701509;30;45612;-94
2021/07/14 14:59:19;;;;;;;;;16.00;13.33;;;;;21.52;60.01;101362.84;4685364;30;47257;-94
2021/07/14 15:02:36;;;;;;;;;13.67;12.00;;;;;21.47;61.58;101371.88;4672499;29;45461;-91
2021/07/14 15:19:07;;;;;;;;;11.33;11.33;;;;;21.31;60.22;101380.16;4826769;24;45595;-93
2021/07/14 15:25:37;;;;;;;;;11.00;11.00;;;;;21.21;62.05;101378.56;4944985;24;71853;-91
2021/07/14 15:28:55;;;;;;;;;12.33;10.00;;;;;21.15;59.76;101359.00;4832190;29;45217;-94
2021/07/14 15:31:26;;;;;;;;;14.67;12.67;;;;;21.15;60.44;101356.34;4813248;29;45390;-92
2021/07/14 15:33:54;;;;;;;;;13.00;11.33;;;;;21.24;60.25;101387.38;4813802;29;47787;-93
2021/07/14 15:37:34;;;;;;;;;;;;;;;;;;;;;
2021/07/14 15:40:00;;;;;;;;;12.67;12.00;;;;;21.21;60.80;101376.75;4737678;30;68657;-93
2021/07/14 15:42:25;;;;;;;;;13.33;11.00;;;;;21.20;61.25;101374.09;4723441;30;45306;-92
2021/07/14 15:44:51;;;;;;;;;12.67;11.00;;;;;21.23;60.04;101382.06;4724428;30;48216;-92
2021/07/14 15:47:17;;;;;;;;;12.00;11.00;;;;;21.15;60.91;101366.19;4735359;29;45808;-91
2021/07/14 15:53:25;;;;;;;;;;;;;;;;;;;;;
2021/07/14 15:55:51;;;;;;;;;14.67;12.33;;;;;21.27;60.08;101386.47;4666825;30;73909;-92
2021/07/14 15:59:39;;;;;;;;;16.33;13.00;;;;;21.30;59.63;101386.41;4653539;30;45521;-94
2021/07/14 16:05:29;;;;;;;;;13.33;11.00;;;;;21.28;60.16;101393.56;4962955;24;45704;-91
2021/07/14 16:08:30;;;;;;;;;12.33;12.33;;;;;21.19;60.56;101380.38;4758033;29;47183;-91
2021/07/14 16:11:05;;;;;;;;;13.00;12.00;;;;;21.25;58.51;101390.94;4687977;30;45300;-93
2021/07/14 16:13:31;;;;;;;;;12.67;12.67;;;;;21.07;60.13;101366.28;4702123;30;45317;-93
2021/07/14 16:16:00;;;;;;;;;17.00;14.33;;;;;21.07;59.87;101371.63;4702890;30;45373;-93
2021/07/14 16:18:26;;;;;;;;;18.33;15.00;;;;;21.16;60.67;101389.31;4703664;30;46959;-94
2021/07/14 16:21:57;;;;;;;;;15.33;13.00;;;;;21.11;59.64;101378.69;4703558;30;45479;-91
2021/07/14 16:24:18;;;;;;;;;12.00;11.67;;;;;21.10;60.32;101370.69;4682899;30;45615;-93
2021/07/14 16:28:36;;;;;;;;;16.67;13.67;;;;;21.22;59.46;101407.03;4705522;30;45443;-93
2021/07/14 16:30:36;;;;;;;;;16.00;15.00;;;;;21.15;60.29;101396.44;4703113;30;45576;-80
2021/07/14 16:33:02;;;;;;;;;15.33;12.33;;;;;21.17;59.95;101401.78;4700155;30;45368;-79
2021/07/14 16:35:29;;;;;;;;;13.33;12.00;;;;;21.13;59.61;101392.91;4700345;30;45396;-80
2021/07/14 16:37:54;;;;;;;;;16.67;13.00;;;;;21.16;60.57;101400.91;4700478;30;45348;-82
2021/07/14 16:40:20;;;;;;;;;15.67;15.33;;;;;21.15;59.89;101393.78;4704166;29;45407;-80
2021/07/14 16:42:45;;;;;;;;;12.33;11.00;;;;;21.15;60.67;101395.59;4753375;29;45424;-80
2021/07/14 16:45:15;;;;;;;;;14.67;13.67;;;;;21.15;59.95;101406.28;4799209;29;45370;-82
2021/07/14 16:47:41;;;;;;;;;17.67;13.67;;;;;21.09;61.41;101395.69;4811395;29;45414;-80
2021/07/14 16:50:09;;;;;;;;;15.33;12.67;;;;;21.14;61.30;101410.72;4827585;29;45438;-80
2021/07/14 16:52:34;;;;;;;;;15.33;13.67;;;;;21.14;61.27;101407.16;4827695;29;45242;-80
2021/07/14 16:55:00;;;;;;;;;16.33;14.00;;;;;21.13;60.54;101408.94;4827763;29;45400;-79
2021/07/14 16:57:26;;;;;;;;;15.00;14.33;;;;;21.10;59.78;101403.66;4827907;29;45451;-80
2021/07/14 16:59:52;;;;;;;;;15.67;14.00;;;;;21.11;60.22;101404.56;4827435;29;46616;-80
2021/07/14 17:02:17;;;;;;;;;18.00;15.67;;;;;21.08;61.02;101408.16;4809891;29;45696;-80
2021/07/14 17:04:43;;;;;;;;;18.00;14.33;;;;;21.08;60.96;101401.94;4827135;29;45403;-81
2021/07/14 17:07:08;;;;;;;;;12.00;10.33;;;;;21.08;60.48;101405.50;4827615;29;45319;-80
2021/07/14 17:09:34;;;;;;;;;16.33;14.67;;;;;21.03;60.58;101396.66;4827383;29;45359;-80
2021/07/14 17:11:59;;;;;;;;;21.00;15.33;;;;;21.03;60.48;101408.22;4827306;29;45310;-81
2021/07/14 17:14:26;;;;;;;;;15.00;13.00;;;;;21.03;60.09;101399.31;4826625;29;45492;-79
2021/07/14 17:16:51;;;;;;;;;15.33;12.67;;;;;21.03;60.32;101402.88;4827440;29;45486;-79
2021/07/14 17:19:17;;;;;;;;;16.00;13.33;;;;;21.03;60.38;101404.66;4826957;29;46121;-81
2021/07/14 17:21:42;;;;;;;;;16.00;14.00;;;;;21.02;60.58;101410.94;4827138;29;45453;-80
2021/07/14 17:24:08;;;;;;;;;16.33;15.33;;;;;21.00;60.25;101408.28;4827124;29;45324;-80
2021/07/14 17:26:33;;;;;;;;;17.33;16.00;;;;;20.97;59.71;101396.72;4827411;29;45265;-80
2021/07/14 17:28:59;;;;;;;;;16.33;15.33;;;;;20.97;59.37;101407.41;4827017;29;46005;-79
2021/07/14 17:31:24;;;;;;;;;15.00;12.67;;;;;20.93;59.99;101410.13;4827116;29;45230;-80
2021/07/14 17:33:50;;;;;;;;;15.00;15.00;;;;;20.88;58.89;101408.41;4827067;29;45990;-80
2021/07/14 17:36:15;;;;;;;;;17.00;14.00;;;;;20.88;60.09;101413.75;4810518;29;45457;-80
2021/07/14 17:38:43;;;;;;;;;13.00;12.00;;;;;20.82;60.11;101420.09;4810269;29;47237;-80
2021/07/14 17:41:08;;;;;;;;;15.33;12.67;;;;;20.81;60.01;101415.66;4822256;29;45339;-82
2021/07/14 17:43:47;;;;;;;;;;;;;;;;;;;;;
2021/07/14 17:46:13;;;;;;;;;18.33;15.33;;;;;20.65;61.09;101391.84;4809122;29;64591;-90
2021/07/14 17:48:41;;;;;;;;;12.33;12.33;;;;;20.74;61.88;101411.31;4808930;29;47673;-90
2021/07/14 17:51:27;;;;;;;;;11.00;11.00;;;;;20.66;60.54;101398.06;4812205;29;45310;-87
2021/07/14 17:53:55;;;;;;;;;16.67;15.67;;;;;20.73;61.14;101420.25;4811591;29;45487;-89
2021/07/14 17:56:24;;;;;;;;;13.00;12.67;;;;;20.63;60.27;101409.66;4866793;24;47267;-91
2021/07/14 17:58:49;;;;;;;;;15.67;13.67;;;;;20.55;60.75;101403.56;4813985;29;48221;-89
2021/07/14 18:01:16;;;;;;;;;16.33;13.67;;;;;20.65;60.80;101423.88;4821823;29;45891;-91
2021/07/14 18:03:42;;;;;;;;;17.33;17.00;;;;;20.52;60.13;101406.28;4819370;29;45404;-93
2021/07/14 18:06:19;;;;;;;;;22.33;14.67;;;;;20.48;60.75;101403.63;4793771;29;45473;-90
2021/07/14 18:08:54;;;;;;;;;17.67;14.67;;;;;20.53;60.54;101416.03;4793462;29;46937;-89
2021/07/14 18:11:22;;;;;;;;;18.67;17.00;;;;;20.51;60.61;101407.16;4808767;29;45512;-93
2021/07/14 18:13:47;;;;;;;;;17.67;17.00;;;;;20.45;61.12;101394.78;4809430;29;45192;-91
2021/07/14 18:16:13;;;;;;;;;14.33;12.67;;;;;20.47;62.33;101407.19;4808954;29;45605;-93
2021/07/14 18:18:45;;;;;;;;;14.67;14.67;;;;;20.53;61.80;101422.28;4793940;29;47103;-93
2021/07/14 18:21:19;;;;;;;;;16.33;13.33;;;;;20.55;62.25;101417.78;4836940;24;45540;-94
2021/07/14 18:23:55;;;;;;;;;15.33;13.33;;;;;20.42;62.14;101398.38;4813236;29;45357;-92
2021/07/14 18:29:09;;;;;;;;;18.00;14.33;;;;;20.41;61.24;101398.41;4834897;29;45530;-89
2021/07/14 18:32:00;;;;;;;;;15.33;12.00;;;;;20.48;61.21;101408.97;4839371;29;45667;-91